createdAt,value
2017-03-23T00:00:06.507Z,0
2017-03-23T00:01:07.122Z,0
2017-03-23T00:02:07.741Z,0
2017-03-23T00:03:08.344Z,0
2017-03-23T00:04:08.959Z,0
2017-03-23T00:05:09.570Z,0
2017-03-23T00:06:10.185Z,0
2017-03-23T00:07:11.006Z,0
2017-03-23T00:08:11.633Z,0
2017-03-23T00:09:12.248Z,0
2017-03-23T00:10:12.858Z,0
2017-03-23T00:11:13.476Z,0
2017-03-23T00:12:14.100Z,0
2017-03-23T00:13:14.703Z,0
2017-03-23T00:14:15.312Z,0
2017-03-23T00:15:15.931Z,0
2017-03-23T00:16:16.546Z,0
2017-03-23T00:17:17.154Z,0
2017-03-23T00:18:17.771Z,0
2017-03-23T00:19:18.385Z,0
2017-03-23T00:20:19.006Z,0
2017-03-23T00:21:19.622Z,0
2017-03-23T00:22:20.225Z,0
2017-03-23T00:23:20.838Z,0
2017-03-23T00:24:21.461Z,0
2017-03-23T00:25:22.074Z,0
2017-03-23T00:26:22.680Z,0
2017-03-23T00:27:23.303Z,0
2017-03-23T00:28:23.906Z,0
2017-03-23T00:29:24.523Z,0
2017-03-23T00:30:25.133Z,0
2017-03-23T00:31:25.757Z,0
2017-03-23T00:32:26.358Z,0
2017-03-23T00:33:26.989Z,0
2017-03-23T00:34:27.581Z,0
2017-03-23T00:35:28.232Z,0
2017-03-23T00:36:28.809Z,0
2017-03-23T00:37:29.407Z,0
2017-03-23T00:38:30.034Z,0
2017-03-23T00:39:30.638Z,0
2017-03-23T00:40:31.260Z,0
2017-03-23T00:41:31.876Z,0
2017-03-23T00:42:32.479Z,0
2017-03-23T00:43:33.085Z,0
2017-03-23T00:44:33.705Z,0
2017-03-23T00:45:34.321Z,0
2017-03-23T00:46:34.925Z,0
2017-03-23T00:47:35.542Z,0
2017-03-23T00:48:36.166Z,0
2017-03-23T00:49:36.770Z,0
2017-03-23T00:50:37.381Z,0
2017-03-23T00:51:37.998Z,0
2017-03-23T00:52:38.599Z,0
2017-03-23T00:53:39.215Z,0
2017-03-23T00:54:39.826Z,0
2017-03-23T00:55:40.451Z,0
2017-03-23T00:56:41.056Z,0
2017-03-23T00:57:41.657Z,0
2017-03-23T00:58:42.271Z,0
2017-03-23T00:59:42.886Z,0
2017-03-23T01:00:43.494Z,0
2017-03-23T01:01:44.099Z,0
2017-03-23T01:02:44.717Z,0
2017-03-23T01:03:45.324Z,0
2017-03-23T01:04:45.939Z,0
2017-03-23T01:05:46.598Z,0
2017-03-23T01:06:47.165Z,0
2017-03-23T01:07:47.783Z,0
2017-03-23T01:08:48.378Z,0
2017-03-23T01:09:48.998Z,0
2017-03-23T01:10:49.604Z,0
2017-03-23T01:11:50.219Z,0
2017-03-23T01:12:50.833Z,0
2017-03-23T01:13:51.462Z,0
2017-03-23T01:14:52.062Z,0
2017-03-23T01:15:52.678Z,0
2017-03-23T01:16:53.297Z,0
2017-03-23T01:17:53.914Z,0
2017-03-23T01:18:54.519Z,0
2017-03-23T01:19:55.130Z,0
2017-03-23T01:20:55.729Z,0
2017-03-23T01:21:56.544Z,0
2017-03-23T01:22:57.165Z,0
2017-03-23T01:23:57.778Z,0
2017-03-23T01:24:58.390Z,0
2017-03-23T01:25:59.014Z,0
2017-03-23T01:26:59.613Z,0
2017-03-23T01:28:00.232Z,0
2017-03-23T01:29:00.838Z,0
2017-03-23T01:30:01.460Z,0
2017-03-23T01:31:02.068Z,0
2017-03-23T01:32:02.683Z,0
2017-03-23T01:33:03.285Z,0
2017-03-23T01:34:03.907Z,0
2017-03-23T01:35:04.522Z,0
2017-03-23T01:36:05.136Z,0
2017-03-23T01:37:05.750Z,0
2017-03-23T01:38:06.374Z,0
2017-03-23T01:39:06.973Z,0
2017-03-23T01:40:07.592Z,0
2017-03-23T01:41:08.206Z,0
2017-03-23T01:42:08.909Z,0
2017-03-23T01:43:09.526Z,0
2017-03-23T01:44:10.151Z,0
2017-03-23T01:45:10.770Z,0
2017-03-23T01:46:11.376Z,0
2017-03-23T01:47:12.232Z,0
2017-03-23T01:48:12.856Z,0
2017-03-23T01:49:13.466Z,0
2017-03-23T01:50:14.070Z,0
2017-03-23T01:51:14.669Z,0
2017-03-23T01:52:15.265Z,0
2017-03-23T01:53:15.900Z,0
2017-03-23T01:54:16.701Z,0
2017-03-23T01:55:17.315Z,0
2017-03-23T01:56:17.924Z,0
2017-03-23T01:57:18.540Z,0
2017-03-23T01:58:19.153Z,0
2017-03-23T01:59:19.775Z,0
2017-03-23T02:00:20.369Z,0
2017-03-23T02:01:20.984Z,0
2017-03-23T02:02:21.838Z,0
2017-03-23T02:03:22.462Z,0
2017-03-23T02:04:23.068Z,0
2017-03-23T02:05:23.688Z,0
2017-03-23T02:06:24.294Z,0
2017-03-23T02:07:24.907Z,0
2017-03-23T02:08:25.518Z,0
2017-03-23T02:09:26.130Z,0
2017-03-23T02:10:26.744Z,0
2017-03-23T02:11:27.344Z,0
2017-03-23T02:12:27.957Z,0
2017-03-23T02:13:28.576Z,0
2017-03-23T02:14:29.197Z,0
2017-03-23T02:15:29.822Z,0
2017-03-23T02:16:30.425Z,0
2017-03-23T02:17:31.033Z,0
2017-03-23T02:18:31.650Z,0
2017-03-23T02:19:32.272Z,0
2017-03-23T02:20:32.875Z,0
2017-03-23T02:21:33.491Z,0
2017-03-23T02:22:34.095Z,0
2017-03-23T02:23:34.726Z,0
2017-03-23T02:24:35.338Z,0
2017-03-23T02:25:35.950Z,0
2017-03-23T02:26:36.560Z,0
2017-03-23T02:27:37.159Z,0
2017-03-23T02:28:37.776Z,0
2017-03-23T02:29:38.392Z,0
2017-03-23T02:30:39.007Z,0
2017-03-23T02:31:39.618Z,0
2017-03-23T02:32:40.223Z,0
2017-03-23T02:33:40.834Z,0
2017-03-23T02:34:41.452Z,0
2017-03-23T02:35:42.067Z,0
2017-03-23T02:36:42.679Z,0
2017-03-23T02:37:43.488Z,0
2017-03-23T02:38:44.103Z,0
2017-03-23T02:39:44.720Z,0
2017-03-23T02:40:45.338Z,0
2017-03-23T02:41:45.950Z,0
2017-03-23T02:42:46.563Z,0
2017-03-23T02:43:47.162Z,0
2017-03-23T02:44:47.784Z,0
2017-03-23T02:45:48.392Z,0
2017-03-23T02:46:49.014Z,0
2017-03-23T02:47:49.628Z,0
2017-03-23T02:48:50.249Z,0
2017-03-23T02:49:50.848Z,0
2017-03-23T02:50:51.459Z,0
2017-03-23T02:51:52.074Z,0
2017-03-23T02:52:52.691Z,0
2017-03-23T02:53:53.303Z,0
2017-03-23T02:54:53.914Z,0
2017-03-23T02:55:54.524Z,0
2017-03-23T02:56:55.152Z,0
2017-03-23T02:57:55.760Z,0
2017-03-23T02:58:56.366Z,0
2017-03-23T02:59:57.183Z,0
2017-03-23T03:00:57.791Z,0
2017-03-23T03:01:58.389Z,0
2017-03-23T03:02:58.999Z,0
2017-03-23T03:03:59.611Z,0
2017-03-23T03:05:00.222Z,0
2017-03-23T03:06:00.852Z,0
2017-03-23T03:07:01.665Z,0
2017-03-23T03:08:02.272Z,0
2017-03-23T03:09:02.882Z,0
2017-03-23T03:10:03.504Z,0
2017-03-23T03:11:04.105Z,0
2017-03-23T03:12:04.716Z,0
2017-03-23T03:13:05.325Z,0
2017-03-23T03:14:05.933Z,0
2017-03-23T03:15:06.549Z,0
2017-03-23T03:16:07.158Z,0
2017-03-23T03:17:07.771Z,0
2017-03-23T03:18:08.378Z,0
2017-03-23T03:19:09.004Z,0
2017-03-23T03:20:09.618Z,0
2017-03-23T03:21:10.210Z,0
2017-03-23T03:22:10.830Z,0
2017-03-23T03:23:11.449Z,0
2017-03-23T03:24:12.253Z,0
2017-03-23T03:25:12.863Z,0
2017-03-23T03:26:13.486Z,0
2017-03-23T03:27:14.096Z,0
2017-03-23T03:28:14.688Z,0
2017-03-23T03:29:15.299Z,0
2017-03-23T03:30:16.118Z,0
2017-03-23T03:31:16.739Z,0
2017-03-23T03:32:17.353Z,0
2017-03-23T03:33:17.966Z,0
2017-03-23T03:34:18.574Z,0
2017-03-23T03:35:19.192Z,0
2017-03-23T03:36:19.801Z,0
2017-03-23T03:37:20.404Z,0
2017-03-23T03:38:21.023Z,0
2017-03-23T03:39:21.632Z,0
2017-03-23T03:40:22.241Z,0
2017-03-23T03:41:22.865Z,0
2017-03-23T03:42:23.478Z,0
2017-03-23T03:43:24.081Z,0
2017-03-23T03:44:24.699Z,0
2017-03-23T03:45:25.301Z,0
2017-03-23T03:46:25.914Z,0
2017-03-23T03:47:26.529Z,0
2017-03-23T03:48:27.135Z,0
2017-03-23T03:49:27.751Z,0
2017-03-23T03:50:28.361Z,0
2017-03-23T03:51:28.981Z,0
2017-03-23T03:52:29.585Z,0
2017-03-23T03:53:30.196Z,0
2017-03-23T03:54:30.821Z,0
2017-03-23T03:55:31.419Z,0
2017-03-23T03:56:32.017Z,0
2017-03-23T03:57:32.635Z,0
2017-03-23T03:58:33.241Z,0
2017-03-23T03:59:33.853Z,0
2017-03-23T04:00:34.448Z,0
2017-03-23T04:01:35.066Z,0
2017-03-23T04:02:35.680Z,0
2017-03-23T04:03:36.286Z,0
2017-03-23T04:04:36.903Z,0
2017-03-23T04:05:37.524Z,0
2017-03-23T04:06:38.124Z,0
2017-03-23T04:07:38.734Z,0
2017-03-23T04:08:39.362Z,0
2017-03-23T04:09:39.956Z,0
2017-03-23T04:10:40.569Z,0
2017-03-23T04:11:41.186Z,0
2017-03-23T04:12:41.806Z,0
2017-03-23T04:13:42.413Z,0
2017-03-23T04:14:43.011Z,0
2017-03-23T04:15:43.622Z,0
2017-03-23T04:16:44.237Z,0
2017-03-23T04:17:44.855Z,0
2017-03-23T04:18:45.465Z,0
2017-03-23T04:19:46.069Z,0
2017-03-23T04:20:46.678Z,0
2017-03-23T04:21:47.296Z,0
2017-03-23T04:22:47.913Z,0
2017-03-23T04:23:48.521Z,0
2017-03-23T04:24:49.132Z,0
2017-03-23T04:25:49.741Z,0
2017-03-23T04:26:50.348Z,0
2017-03-23T04:27:50.991Z,0
2017-03-23T04:28:51.586Z,0
2017-03-23T04:29:52.189Z,0
2017-03-23T04:30:52.802Z,0
2017-03-23T04:31:53.409Z,0
2017-03-23T04:32:54.029Z,0
2017-03-23T04:33:54.803Z,0
2017-03-23T04:34:55.425Z,0
2017-03-23T04:35:56.036Z,0
2017-03-23T04:36:56.652Z,0
2017-03-23T04:37:57.268Z,0
2017-03-23T04:38:57.876Z,0
2017-03-23T04:39:58.688Z,0
2017-03-23T04:40:59.300Z,0
2017-03-23T04:41:59.911Z,0
2017-03-23T04:43:00.507Z,0
2017-03-23T04:44:01.123Z,0
2017-03-23T04:45:01.742Z,0
2017-03-23T04:46:02.355Z,0
2017-03-23T04:47:02.959Z,0
2017-03-23T04:48:03.568Z,0
2017-03-23T04:49:04.194Z,0
2017-03-23T04:50:04.793Z,0
2017-03-23T04:51:05.405Z,0
2017-03-23T04:52:06.001Z,0
2017-03-23T04:53:06.619Z,0
2017-03-23T04:54:07.229Z,0
2017-03-23T04:55:07.845Z,0
2017-03-23T04:56:08.468Z,0
2017-03-23T04:57:09.074Z,0
2017-03-23T04:58:09.676Z,0
2017-03-23T04:59:10.298Z,0
2017-03-23T05:00:10.903Z,0
2017-03-23T05:01:11.513Z,0
2017-03-23T05:02:12.132Z,4
2017-03-23T05:03:12.742Z,4
2017-03-23T05:04:13.601Z,0
2017-03-23T05:05:14.201Z,4
2017-03-23T05:06:14.817Z,4
2017-03-23T05:07:15.420Z,4
2017-03-23T05:08:16.046Z,8
2017-03-23T05:09:16.671Z,8
2017-03-23T05:10:17.278Z,8
2017-03-23T05:11:17.890Z,16
2017-03-23T05:12:18.504Z,12
2017-03-23T05:13:19.116Z,16
2017-03-23T05:14:19.730Z,20
2017-03-23T05:15:20.343Z,24
2017-03-23T05:16:20.956Z,28
2017-03-23T05:17:21.571Z,32
2017-03-23T05:18:22.188Z,40
2017-03-23T05:19:22.793Z,48
2017-03-23T05:20:23.410Z,52
2017-03-23T05:21:24.020Z,60
2017-03-23T05:22:24.641Z,68
2017-03-23T05:23:25.238Z,80
2017-03-23T05:24:26.077Z,88
2017-03-23T05:25:26.692Z,100
2017-03-23T05:26:27.300Z,116
2017-03-23T05:27:27.959Z,128
2017-03-23T05:28:28.752Z,144
2017-03-23T05:29:29.374Z,160
2017-03-23T05:30:29.973Z,180
2017-03-23T05:31:30.586Z,196
2017-03-23T05:32:31.406Z,216
2017-03-23T05:33:32.030Z,240
2017-03-23T05:34:32.628Z,264
2017-03-23T05:35:33.257Z,288
2017-03-23T05:36:33.864Z,324
2017-03-23T05:37:34.473Z,352
2017-03-23T05:38:35.089Z,372
2017-03-23T05:39:35.702Z,408
2017-03-23T05:40:36.324Z,440
2017-03-23T05:41:37.012Z,472
2017-03-23T05:42:37.656Z,504
2017-03-23T05:43:38.383Z,520
2017-03-23T05:44:39.010Z,540
2017-03-23T05:45:39.658Z,552
2017-03-23T05:46:40.264Z,564
2017-03-23T05:47:40.886Z,596
2017-03-23T05:48:41.492Z,628
2017-03-23T05:49:42.112Z,644
2017-03-23T05:50:42.718Z,656
2017-03-23T05:51:43.343Z,680
2017-03-23T05:52:43.953Z,736
2017-03-23T05:53:44.562Z,800
2017-03-23T05:54:45.167Z,820
2017-03-23T05:55:45.783Z,824
2017-03-23T05:56:46.389Z,872
2017-03-23T05:57:47.014Z,1000
2017-03-23T05:58:47.622Z,1100
2017-03-23T05:59:48.244Z,1160
2017-03-23T06:00:48.840Z,1204
2017-03-23T06:01:49.455Z,1252
2017-03-23T06:02:50.069Z,1296
2017-03-23T06:03:50.691Z,1344
2017-03-23T06:04:51.298Z,1384
2017-03-23T06:05:51.929Z,1408
2017-03-23T06:06:52.544Z,1424
2017-03-23T06:07:53.159Z,1468
2017-03-23T06:08:53.774Z,1540
2017-03-23T06:09:54.395Z,1604
2017-03-23T06:10:54.997Z,1696
2017-03-23T06:11:55.621Z,1744
2017-03-23T06:12:56.237Z,1792
2017-03-23T06:13:56.849Z,1844
2017-03-23T06:14:57.457Z,1900
2017-03-23T06:15:58.073Z,1932
2017-03-23T06:16:58.689Z,1928
2017-03-23T06:17:59.315Z,1888
2017-03-23T06:18:59.936Z,1672
2017-03-23T06:20:00.547Z,1592
2017-03-23T06:21:01.172Z,1772
2017-03-23T06:22:01.798Z,2016
2017-03-23T06:23:02.408Z,2160
2017-03-23T06:24:03.038Z,2296
2017-03-23T06:25:03.682Z,2404
2017-03-23T06:26:04.306Z,2128
2017-03-23T06:27:04.925Z,2328
2017-03-23T06:28:05.540Z,2492
2017-03-23T06:29:06.148Z,2664
2017-03-23T06:30:06.763Z,2800
2017-03-23T06:31:07.394Z,2920
2017-03-23T06:32:07.999Z,2968
2017-03-23T06:33:08.627Z,3032
2017-03-23T06:34:09.238Z,2968
2017-03-23T06:35:10.161Z,2628
2017-03-23T06:36:10.731Z,2584
2017-03-23T06:37:11.346Z,2976
2017-03-23T06:38:11.964Z,3008
2017-03-23T06:39:12.591Z,2944
2017-03-23T06:40:13.211Z,2984
2017-03-23T06:41:13.827Z,3128
2017-03-23T06:42:14.449Z,3596
2017-03-23T06:43:15.068Z,3848
2017-03-23T06:44:15.692Z,3968
2017-03-23T06:45:16.324Z,4244
2017-03-23T06:46:16.934Z,4480
2017-03-23T06:47:17.546Z,4660
2017-03-23T06:48:18.153Z,4872
2017-03-23T06:49:18.779Z,5028
2017-03-23T06:50:19.397Z,5120
2017-03-23T06:51:20.023Z,5192
2017-03-23T06:52:20.630Z,5264
2017-03-23T06:53:21.260Z,5312
2017-03-23T06:54:21.889Z,4200
2017-03-23T06:55:22.498Z,4584
2017-03-23T06:56:23.131Z,5160
2017-03-23T06:57:23.761Z,5632
2017-03-23T06:58:24.374Z,5588
2017-03-23T06:59:25.006Z,5612
2017-03-23T07:00:25.635Z,5540
2017-03-23T07:01:26.250Z,5108
2017-03-23T07:02:26.877Z,4456
2017-03-23T07:03:27.495Z,4784
2017-03-23T07:04:28.102Z,4540
2017-03-23T07:05:28.739Z,3572
2017-03-23T07:06:29.347Z,3460
2017-03-23T07:07:29.982Z,3504
2017-03-23T07:08:30.606Z,3672
2017-03-23T07:09:31.220Z,3084
2017-03-23T07:10:31.831Z,2972
2017-03-23T07:11:32.456Z,3100
2017-03-23T07:12:33.085Z,3452
2017-03-23T07:13:33.710Z,3692
2017-03-23T07:14:34.341Z,3640
2017-03-23T07:15:34.967Z,3640
2017-03-23T07:16:35.586Z,3808
2017-03-23T07:17:36.209Z,4460
2017-03-23T07:18:36.834Z,4292
2017-03-23T07:19:37.457Z,4764
2017-03-23T07:20:38.290Z,4604
2017-03-23T07:21:38.905Z,5104
2017-03-23T07:22:39.530Z,4688
2017-03-23T07:23:40.162Z,4820
2017-03-23T07:24:40.778Z,5428
2017-03-23T07:25:41.412Z,6000
2017-03-23T07:26:42.043Z,6944
2017-03-23T07:27:42.665Z,7420
2017-03-23T07:28:43.284Z,7844
2017-03-23T07:29:43.915Z,8388
2017-03-23T07:30:44.529Z,9216
2017-03-23T07:31:45.153Z,10236
2017-03-23T07:32:45.782Z,10016
2017-03-23T07:33:46.401Z,10344
2017-03-23T07:34:47.030Z,9724
2017-03-23T07:35:47.661Z,10668
2017-03-23T07:36:48.285Z,10840
2017-03-23T07:37:48.911Z,11808
2017-03-23T07:38:49.539Z,11588
2017-03-23T07:39:50.175Z,11364
2017-03-23T07:40:50.813Z,11476
2017-03-23T07:41:51.441Z,11728
2017-03-23T07:42:52.090Z,10892
2017-03-23T07:43:52.693Z,12280
2017-03-23T07:44:53.323Z,12760
2017-03-23T07:45:53.951Z,12972
2017-03-23T07:46:54.578Z,13272
2017-03-23T07:47:55.205Z,11220
2017-03-23T07:48:55.839Z,13028
2017-03-23T07:49:56.471Z,13496
2017-03-23T07:50:57.102Z,12628
2017-03-23T07:51:57.727Z,12676
2017-03-23T07:52:58.364Z,12616
2017-03-23T07:53:59.003Z,12964
2017-03-23T07:54:59.647Z,13184
2017-03-23T07:56:00.259Z,13324
2017-03-23T07:57:00.886Z,13628
2017-03-23T07:58:01.516Z,14236
2017-03-23T07:59:02.151Z,14400
2017-03-23T08:00:02.802Z,13900
2017-03-23T08:01:03.448Z,13712
2017-03-23T08:02:04.072Z,14036
2017-03-23T08:03:04.700Z,14436
2017-03-23T08:04:05.547Z,14540
2017-03-23T08:05:06.188Z,13996
2017-03-23T08:06:07.083Z,14988
2017-03-23T08:07:07.719Z,15112
2017-03-23T08:08:08.364Z,15476
2017-03-23T08:09:08.991Z,16592
2017-03-23T08:10:09.637Z,16280
2017-03-23T08:11:10.275Z,16256
2017-03-23T08:12:10.899Z,17056
2017-03-23T08:13:11.537Z,17600
2017-03-23T08:14:12.180Z,17760
2017-03-23T08:15:12.824Z,18080
2017-03-23T08:16:13.473Z,18432
2017-03-23T08:17:14.105Z,19616
2017-03-23T08:18:14.745Z,19520
2017-03-23T08:19:15.371Z,20928
2017-03-23T08:20:16.001Z,22304
2017-03-23T08:21:16.636Z,22432
2017-03-23T08:22:17.278Z,21792
2017-03-23T08:23:17.890Z,22048
2017-03-23T08:24:18.532Z,20544
2017-03-23T08:25:19.155Z,21088
2017-03-23T08:26:19.800Z,21184
2017-03-23T08:27:20.426Z,21408
2017-03-23T08:28:21.075Z,21600
2017-03-23T08:29:21.696Z,22528
2017-03-23T08:30:22.335Z,23072
2017-03-23T08:31:22.970Z,23872
2017-03-23T08:32:23.804Z,23488
2017-03-23T08:33:24.445Z,25312
2017-03-23T08:34:25.081Z,25856
2017-03-23T08:35:25.717Z,26240
2017-03-23T08:36:26.551Z,26240
2017-03-23T08:37:27.188Z,26304
2017-03-23T08:38:27.930Z,27424
2017-03-23T08:39:28.565Z,26560
2017-03-23T08:40:29.198Z,27232
2017-03-23T08:41:29.831Z,26080
2017-03-23T08:42:30.469Z,25792
2017-03-23T08:43:31.109Z,28096
2017-03-23T08:44:31.744Z,31648
2017-03-23T08:45:32.387Z,33568
2017-03-23T08:46:33.027Z,32864
2017-03-23T08:47:33.662Z,30816
2017-03-23T08:48:34.286Z,30912
2017-03-23T08:49:34.931Z,33248
2017-03-23T08:50:35.563Z,38304
2017-03-23T08:51:36.207Z,41120
2017-03-23T08:52:36.864Z,43360
2017-03-23T08:53:37.520Z,44000
2017-03-23T08:54:38.115Z,42624
2017-03-23T08:55:38.755Z,42432
2017-03-23T08:56:39.393Z,41536
2017-03-23T08:57:40.030Z,38720
2017-03-23T08:58:40.669Z,36704
2017-03-23T08:59:41.306Z,40672
2017-03-23T09:00:41.938Z,40832
2017-03-23T09:01:42.783Z,39328
2017-03-23T09:02:43.420Z,38560
2017-03-23T09:03:44.045Z,38528
2017-03-23T09:04:44.687Z,37504
2017-03-23T09:05:45.336Z,35264
2017-03-23T09:06:45.970Z,35040
2017-03-23T09:07:46.607Z,35680
2017-03-23T09:08:47.261Z,39552
2017-03-23T09:09:47.887Z,41984
2017-03-23T09:10:48.536Z,45216
2017-03-23T09:11:49.166Z,42784
2017-03-23T09:12:49.808Z,43008
2017-03-23T09:13:50.428Z,42048
2017-03-23T09:14:51.069Z,46080
2017-03-23T09:15:51.713Z,45440
2017-03-23T09:16:52.358Z,44160
2017-03-23T09:17:52.994Z,43072
2017-03-23T09:18:53.636Z,42208
2017-03-23T09:19:54.276Z,44896
2017-03-23T09:20:54.919Z,49504
2017-03-23T09:21:55.556Z,49760
2017-03-23T09:22:56.198Z,49952
2017-03-23T09:23:56.841Z,48416
2017-03-23T09:24:57.482Z,48224
2017-03-23T09:25:58.112Z,46464
2017-03-23T09:26:58.941Z,21216
2017-03-23T09:27:59.565Z,51104
2017-03-23T09:29:00.203Z,37888
2017-03-23T09:30:00.829Z,21344
2017-03-23T09:31:01.461Z,45248
2017-03-23T09:32:02.091Z,45888
2017-03-23T09:33:02.725Z,46240
2017-03-23T09:34:03.356Z,46912
2017-03-23T09:35:03.998Z,46112
2017-03-23T09:36:04.633Z,49376
2017-03-23T09:37:05.477Z,27072
2017-03-23T09:38:06.107Z,24256
2017-03-23T09:39:06.744Z,47456
2017-03-23T09:40:07.375Z,47104
2017-03-23T09:41:08.024Z,46336
2017-03-23T09:42:08.660Z,48160
2017-03-23T09:43:09.300Z,46912
2017-03-23T09:44:09.950Z,19808
2017-03-23T09:45:10.586Z,47488
2017-03-23T09:46:11.218Z,38688
2017-03-23T09:47:11.839Z,46720
2017-03-23T09:48:12.466Z,40352
2017-03-23T09:49:13.153Z,20064
2017-03-23T09:50:13.816Z,40544
2017-03-23T09:51:14.447Z,51424
2017-03-23T09:52:15.087Z,46912
2017-03-23T09:53:15.733Z,48896
2017-03-23T09:54:16.356Z,47936
2017-03-23T09:55:16.995Z,47488
2017-03-23T09:56:17.653Z,49024
2017-03-23T09:57:18.288Z,51296
2017-03-23T09:58:18.927Z,53408
2017-03-23T09:59:19.563Z,56416
2017-03-23T10:00:20.208Z,56896
2017-03-23T10:01:20.846Z,57728
2017-03-23T10:02:21.491Z,50240
2017-03-23T10:03:22.313Z,53824
2017-03-23T10:04:22.938Z,54848
2017-03-23T10:05:23.580Z,54912
2017-03-23T10:06:24.202Z,65184
2017-03-23T10:07:24.841Z,68512
2017-03-23T10:08:25.493Z,65792
2017-03-23T10:09:26.125Z,64160
2017-03-23T10:10:26.758Z,65024
2017-03-23T10:11:27.403Z,64352
2017-03-23T10:12:28.050Z,62720
2017-03-23T10:13:28.698Z,68672
2017-03-23T10:14:29.326Z,64320
2017-03-23T10:15:29.963Z,65248
2017-03-23T10:16:30.608Z,65504
2017-03-23T10:17:31.258Z,63584
2017-03-23T10:18:31.873Z,64416
2017-03-23T10:19:32.518Z,70144
2017-03-23T10:20:33.157Z,66656
2017-03-23T10:21:33.784Z,64192
2017-03-23T10:22:34.440Z,64768
2017-03-23T10:23:35.067Z,62976
2017-03-23T10:24:35.703Z,62240
2017-03-23T10:25:36.342Z,60512
2017-03-23T10:26:36.978Z,63424
2017-03-23T10:27:37.619Z,66400
2017-03-23T10:28:38.255Z,73312
2017-03-23T10:29:38.887Z,74432
2017-03-23T10:30:39.510Z,73664
2017-03-23T10:31:40.150Z,73312
2017-03-23T10:32:40.782Z,71040
2017-03-23T10:33:41.437Z,70976
2017-03-23T10:34:42.065Z,71008
2017-03-23T10:35:42.684Z,73216
2017-03-23T10:36:43.324Z,71872
2017-03-23T10:37:43.968Z,72960
2017-03-23T10:38:44.609Z,71680
2017-03-23T10:39:45.241Z,69408
2017-03-23T10:40:45.883Z,69408
2017-03-23T10:41:46.507Z,71616
2017-03-23T10:42:47.133Z,74720
2017-03-23T10:43:47.773Z,75456
2017-03-23T10:44:48.405Z,77632
2017-03-23T10:45:49.047Z,72736
2017-03-23T10:46:49.681Z,68960
2017-03-23T10:47:50.317Z,66592
2017-03-23T10:48:50.964Z,66944
2017-03-23T10:49:51.594Z,72384
2017-03-23T10:50:52.281Z,72384
2017-03-23T10:51:52.870Z,75936
2017-03-23T10:52:53.499Z,74400
2017-03-23T10:53:54.135Z,71136
2017-03-23T10:54:54.782Z,74912
2017-03-23T10:55:55.411Z,73696
2017-03-23T10:56:56.047Z,75392
2017-03-23T10:57:56.682Z,82976
2017-03-23T10:58:57.307Z,85952
2017-03-23T10:59:57.945Z,84544
2017-03-23T11:00:58.587Z,80640
2017-03-23T11:01:59.227Z,79136
2017-03-23T11:03:00.113Z,80000
2017-03-23T11:04:00.820Z,81312
2017-03-23T11:05:01.619Z,81088
2017-03-23T11:06:02.245Z,85216
2017-03-23T11:07:02.884Z,83008
2017-03-23T11:08:03.533Z,81952
2017-03-23T11:09:04.165Z,78720
2017-03-23T11:10:04.796Z,77216
2017-03-23T11:11:05.441Z,74720
2017-03-23T11:12:06.088Z,71488
2017-03-23T11:13:06.712Z,76704
2017-03-23T11:14:07.360Z,80928
2017-03-23T11:15:07.987Z,84096
2017-03-23T11:16:08.612Z,84928
2017-03-23T11:17:09.262Z,85184
2017-03-23T11:18:09.896Z,89280
2017-03-23T11:19:10.732Z,94496
2017-03-23T11:20:11.397Z,93408
2017-03-23T11:21:12.041Z,90912
2017-03-23T11:22:12.682Z,80896
2017-03-23T11:23:13.310Z,75008
2017-03-23T11:24:13.950Z,70176
2017-03-23T11:25:14.588Z,74496
2017-03-23T11:26:15.225Z,76064
2017-03-23T11:27:15.850Z,80000
2017-03-23T11:28:16.487Z,81920
2017-03-23T11:29:17.131Z,79200
2017-03-23T11:30:17.771Z,72480
2017-03-23T11:31:18.394Z,72288
2017-03-23T11:32:19.044Z,76160
2017-03-23T11:33:19.671Z,78336
2017-03-23T11:34:20.310Z,75904
2017-03-23T11:35:20.938Z,73472
2017-03-23T11:36:21.578Z,78912
2017-03-23T11:37:22.209Z,82848
2017-03-23T11:38:22.848Z,82080
2017-03-23T11:39:23.479Z,82208
2017-03-23T11:40:24.105Z,67072
2017-03-23T11:41:24.747Z,63936
2017-03-23T11:42:25.382Z,56928
2017-03-23T11:43:26.008Z,52832
2017-03-23T11:44:26.653Z,56384
2017-03-23T11:45:27.283Z,59040
2017-03-23T11:46:27.920Z,67008
2017-03-23T11:47:28.551Z,57664
2017-03-23T11:48:29.394Z,48928
2017-03-23T11:49:30.022Z,59968
2017-03-23T11:50:30.661Z,63104
2017-03-23T11:51:31.290Z,69760
2017-03-23T11:52:31.932Z,66848
2017-03-23T11:53:32.570Z,65504
2017-03-23T11:54:33.194Z,40352
2017-03-23T11:55:33.822Z,12712
2017-03-23T11:56:34.461Z,10936
2017-03-23T11:57:35.088Z,10224
2017-03-23T11:58:35.713Z,9856
2017-03-23T11:59:36.348Z,9460
2017-03-23T12:00:36.971Z,9004
2017-03-23T12:01:37.614Z,8348
2017-03-23T12:02:38.224Z,8020
2017-03-23T12:03:38.852Z,8076
2017-03-23T12:04:39.495Z,8296
2017-03-23T12:05:40.117Z,8292
2017-03-23T12:06:40.944Z,8304
2017-03-23T12:07:41.570Z,8444
2017-03-23T12:08:42.202Z,8160
2017-03-23T12:09:42.830Z,8092
2017-03-23T12:10:43.467Z,7724
2017-03-23T12:11:44.077Z,7572
2017-03-23T12:12:44.704Z,7300
2017-03-23T12:13:45.578Z,7292
2017-03-23T12:14:46.403Z,7396
2017-03-23T12:15:47.030Z,7380
2017-03-23T12:16:47.666Z,7232
2017-03-23T12:17:48.287Z,7096
2017-03-23T12:18:49.129Z,7268
2017-03-23T12:19:49.757Z,7304
2017-03-23T12:20:50.376Z,7472
2017-03-23T12:21:50.987Z,7148
2017-03-23T12:22:51.625Z,6968
2017-03-23T12:23:52.258Z,6848
2017-03-23T12:24:52.883Z,7384
2017-03-23T12:25:53.498Z,7716
2017-03-23T12:26:54.124Z,8032
2017-03-23T12:27:54.756Z,8056
2017-03-23T12:28:55.374Z,8300
2017-03-23T12:29:56.004Z,8812
2017-03-23T12:30:56.632Z,9200
2017-03-23T12:31:57.249Z,9404
2017-03-23T12:32:57.865Z,9108
2017-03-23T12:33:58.485Z,8720
2017-03-23T12:34:59.115Z,8936
2017-03-23T12:35:59.741Z,9188
2017-03-23T12:37:00.404Z,9780
2017-03-23T12:38:01.050Z,10180
2017-03-23T12:39:01.665Z,10512
2017-03-23T12:40:02.293Z,10912
2017-03-23T12:41:02.923Z,11192
2017-03-23T12:42:03.553Z,11312
2017-03-23T12:43:04.185Z,11340
2017-03-23T12:44:04.817Z,11236
2017-03-23T12:45:05.433Z,11004
2017-03-23T12:46:06.067Z,10308
2017-03-23T12:47:06.678Z,9680
2017-03-23T12:48:07.295Z,9220
2017-03-23T12:49:07.929Z,8776
2017-03-23T12:50:08.550Z,8644
2017-03-23T12:51:09.177Z,8148
2017-03-23T12:52:09.812Z,7788
2017-03-23T12:53:10.429Z,7700
2017-03-23T12:54:11.056Z,7716
2017-03-23T12:55:11.688Z,7576
2017-03-23T12:56:12.314Z,7476
2017-03-23T12:57:12.933Z,7240
2017-03-23T12:58:13.778Z,6824
2017-03-23T12:59:14.389Z,6652
2017-03-23T13:00:15.023Z,6764
2017-03-23T13:01:15.642Z,7044
2017-03-23T13:02:16.268Z,7516
2017-03-23T13:03:17.082Z,8080
2017-03-23T13:04:17.968Z,8796
2017-03-23T13:05:18.586Z,9484
2017-03-23T13:06:19.214Z,10232
2017-03-23T13:07:19.857Z,10788
2017-03-23T13:08:20.474Z,11328
2017-03-23T13:09:21.109Z,11816
2017-03-23T13:10:21.717Z,12324
2017-03-23T13:11:22.335Z,12236
2017-03-23T13:12:22.967Z,12100
2017-03-23T13:13:23.604Z,12096
2017-03-23T13:14:24.478Z,12136
2017-03-23T13:15:25.103Z,12164
2017-03-23T13:16:25.731Z,12140
2017-03-23T13:17:26.356Z,12088
2017-03-23T13:18:26.996Z,12016
2017-03-23T13:19:27.617Z,12128
2017-03-23T13:20:28.231Z,12368
2017-03-23T13:21:28.863Z,12724
2017-03-23T13:22:29.501Z,12792
2017-03-23T13:23:30.115Z,12848
2017-03-23T13:24:30.757Z,12876
2017-03-23T13:25:31.384Z,12896
2017-03-23T13:26:32.004Z,12908
2017-03-23T13:27:32.625Z,12772
2017-03-23T13:28:33.269Z,12640
2017-03-23T13:29:33.890Z,12344
2017-03-23T13:30:34.516Z,11840
2017-03-23T13:31:35.147Z,11248
2017-03-23T13:32:35.771Z,10908
2017-03-23T13:33:36.400Z,10816
2017-03-23T13:34:37.012Z,10580
2017-03-23T13:35:37.644Z,10184
2017-03-23T13:36:38.262Z,9728
2017-03-23T13:37:38.895Z,9252
2017-03-23T13:38:39.510Z,8828
2017-03-23T13:39:40.145Z,8308
2017-03-23T13:40:40.773Z,7884
2017-03-23T13:41:41.410Z,7404
2017-03-23T13:42:42.035Z,6908
2017-03-23T13:43:42.664Z,6316
2017-03-23T13:44:43.283Z,5796
2017-03-23T13:45:43.920Z,5328
2017-03-23T13:46:44.547Z,4952
2017-03-23T13:47:45.176Z,4680
2017-03-23T13:48:45.795Z,4452
2017-03-23T13:49:46.435Z,4304